createdAt,value
2023-04-01T00:01:03.289Z,17.17
2023-04-01T00:03:32.023Z,16.85
2023-04-01T00:06:00.586Z,17.35
2023-04-01T00:08:28.667Z,16.92
2023-04-01T00:10:58.139Z,18.05
2023-04-01T00:13:27.336Z,18.92
2023-04-01T00:15:56.637Z,20.20
2023-04-01T00:18:25.839Z,19.02
2023-04-01T00:20:53.696Z,19.30
2023-04-01T00:23:21.768Z,19.42
2023-04-01T00:25:49.496Z,20.20
2023-04-01T00:28:19.010Z,23.13
2023-04-01T00:30:46.810Z,27.67
2023-04-01T00:33:14.395Z,22.13
2023-04-01T00:35:41.655Z,21.65
2023-04-01T00:38:09.328Z,22.52
2023-04-01T00:40:39.770Z,20.30
2023-04-01T00:43:20.360Z,19.98
2023-04-01T00:45:49.702Z,20.90
2023-04-01T00:48:21.524Z,20.60
2023-04-01T00:51:10.369Z,21.13
2023-04-01T00:53:42.276Z,22.00
2023-04-01T00:56:30.670Z,22.48
2023-04-01T00:59:06.747Z,23.48
2023-04-01T01:01:35.847Z,23.75
2023-04-01T01:04:03.781Z,22.60
2023-04-01T01:06:49.228Z,27.65
2023-04-01T01:09:51.648Z,24.52
2023-04-01T01:12:30.634Z,25.75
2023-04-01T01:15:20.219Z,26.90
2023-04-01T01:18:11.539Z,26.48
2023-04-01T01:21:21.076Z,27.27
2023-04-01T01:24:22.391Z,27.63
2023-04-01T01:26:56.225Z,26.38
2023-04-01T01:29:53.181Z,29.15
2023-04-01T01:32:50.651Z,29.67
2023-04-01T01:35:18.288Z,30.60
2023-04-01T01:37:47.858Z,52.17
2023-04-01T01:40:16.646Z,28.85
2023-04-01T01:42:54.646Z,29.70
2023-04-01T01:45:25.983Z,31.92
2023-04-01T01:47:55.330Z,35.67
2023-04-01T01:50:23.584Z,29.63
2023-04-01T01:52:51.182Z,29.58
2023-04-01T01:55:36.728Z,29.85
2023-04-01T01:58:16.340Z,29.95
2023-04-01T02:00:48.163Z,28.75
2023-04-01T02:03:18.027Z,32.13
2023-04-01T02:05:45.987Z,40.67
2023-04-01T02:08:22.445Z,32.53
2023-04-01T02:11:11.628Z,35.88
2023-04-01T02:13:47.308Z,38.22
2023-04-01T02:16:44.490Z,37.83
2023-04-01T02:19:14.198Z,41.15
2023-04-01T02:21:43.267Z,40.72
2023-04-01T02:24:15.022Z,41.45
2023-04-01T02:26:42.656Z,41.42
2023-04-01T02:29:12.635Z,40.17
2023-04-01T02:31:40.690Z,41.00
2023-04-01T02:34:08.444Z,38.97
2023-04-01T02:36:37.411Z,40.85
2023-04-01T02:39:06.606Z,41.75
2023-04-01T02:41:40.826Z,39.67
2023-04-01T02:44:09.827Z,37.35
2023-04-01T02:46:38.632Z,38.75
2023-04-01T02:49:06.461Z,36.60
2023-04-01T02:51:34.573Z,36.42
2023-04-01T02:54:02.162Z,34.03
2023-04-01T02:56:29.797Z,30.90
2023-04-01T02:58:57.352Z,28.23
2023-04-01T03:01:24.772Z,27.00
2023-04-01T03:03:52.305Z,28.35
2023-04-01T03:06:19.622Z,26.02
2023-04-01T03:08:47.673Z,26.33
2023-04-01T03:11:15.313Z,25.55
2023-04-01T03:13:42.879Z,23.02
2023-04-01T03:16:11.395Z,22.48
2023-04-01T03:18:38.955Z,24.83
2023-04-01T03:21:20.971Z,20.17
2023-04-01T03:23:48.513Z,21.05
2023-04-01T03:26:16.525Z,20.65
2023-04-01T03:28:44.778Z,20.35
2023-04-01T03:31:12.196Z,19.20
2023-04-01T03:33:46.313Z,18.33
2023-04-01T03:36:14.142Z,19.52
2023-04-01T03:38:43.239Z,18.10
2023-04-01T03:41:14.805Z,18.30
2023-04-01T03:43:42.830Z,17.58
2023-04-01T03:46:10.215Z,15.70
2023-04-01T03:48:38.108Z,15.82
2023-04-01T03:51:08.821Z,16.35
2023-04-01T03:53:36.430Z,16.23
2023-04-01T03:56:07.736Z,16.13
2023-04-01T03:58:37.894Z,14.75
2023-04-01T04:01:19.211Z,15.13
2023-04-01T04:03:50.165Z,15.40
2023-04-01T04:06:19.487Z,13.55
2023-04-01T04:08:47.516Z,15.02
2023-04-01T04:11:15.053Z,14.63
2023-04-01T04:13:44.561Z,15.05
2023-04-01T04:16:12.184Z,13.93
2023-04-01T04:21:16.096Z,14.13
2023-04-01T04:26:13.735Z,17.00
2023-04-01T04:28:41.535Z,19.13
2023-04-01T04:31:09.182Z,18.10
2023-04-01T04:33:38.265Z,16.70
2023-04-01T04:36:06.057Z,16.58
2023-04-01T04:38:33.803Z,16.60
2023-04-01T04:41:01.138Z,17.20
2023-04-01T04:43:28.800Z,15.45
2023-04-01T04:45:57.376Z,15.98
2023-04-01T04:48:24.967Z,16.80
2023-04-01T04:50:52.339Z,15.63
2023-04-01T04:53:23.350Z,16.08
2023-04-01T04:55:51.266Z,15.07
2023-04-01T04:58:28.540Z,15.90
2023-04-01T05:00:56.428Z,15.13
2023-04-01T05:03:33.212Z,14.48
2023-04-01T05:06:00.655Z,16.10
2023-04-01T05:08:28.225Z,16.20
2023-04-01T05:10:55.498Z,13.48
2023-04-01T05:13:23.144Z,13.50
2023-04-01T05:15:50.465Z,13.02
2023-04-01T05:18:18.340Z,13.85
2023-04-01T05:20:54.106Z,12.30
2023-04-01T05:23:22.794Z,12.20
2023-04-01T05:25:52.034Z,12.90
2023-04-01T05:28:21.258Z,11.43
2023-04-01T05:30:48.607Z,11.68
2023-04-01T05:33:23.387Z,10.50
2023-04-01T05:35:51.185Z,11.45
2023-04-01T05:38:18.626Z,10.15
2023-04-01T05:40:46.687Z,11.63
2023-04-01T05:43:14.318Z,11.68
2023-04-01T05:45:43.078Z,11.68
2023-04-01T05:48:13.076Z,12.07
2023-04-01T05:50:42.895Z,11.30
2023-04-01T05:53:11.900Z,12.07
2023-04-01T05:55:42.281Z,11.32
2023-04-01T05:58:09.739Z,11.18
2023-04-01T06:00:38.604Z,11.30
2023-04-01T06:03:06.172Z,12.45
2023-04-01T06:05:41.055Z,11.60
2023-04-01T06:08:20.331Z,9.43
2023-04-01T06:11:00.781Z,11.03
2023-04-01T06:13:46.304Z,11.68
2023-04-01T06:16:32.462Z,11.30
2023-04-01T06:19:37.225Z,11.30
2023-04-01T06:22:31.060Z,10.68
2023-04-01T06:25:45.917Z,11.18
2023-04-01T06:28:22.145Z,10.10
2023-04-01T06:31:10.754Z,11.32
2023-04-01T06:33:56.875Z,12.10
2023-04-01T06:36:33.188Z,11.65
2023-04-01T06:39:19.266Z,12.20
2023-04-01T06:42:23.454Z,11.55
2023-04-01T06:45:01.015Z,13.35
2023-04-01T06:47:53.276Z,12.63
2023-04-01T06:51:02.020Z,10.95
2023-04-01T06:54:06.300Z,10.98
2023-04-01T06:57:35.712Z,11.57
2023-04-01T07:00:33.809Z,12.25
2023-04-01T07:03:22.957Z,13.02
2023-04-01T07:05:51.609Z,11.02
2023-04-01T07:08:25.529Z,11.43
2023-04-01T07:10:57.811Z,11.35
2023-04-01T07:13:50.971Z,12.93
2023-04-01T07:16:31.434Z,12.73
2023-04-01T07:19:31.034Z,11.82
2023-04-01T07:22:41.776Z,12.73
2023-04-01T07:25:59.709Z,11.43
2023-04-01T07:28:35.180Z,12.80
2023-04-01T07:31:36.975Z,13.23
2023-04-01T07:34:11.466Z,13.18
2023-04-01T07:37:02.456Z,12.05
2023-04-01T07:39:36.465Z,13.23
2023-04-01T07:42:29.270Z,11.48
2023-04-01T07:45:08.228Z,11.95
2023-04-01T07:48:14.968Z,12.30
2023-04-01T07:51:03.998Z,10.27
2023-04-01T07:53:55.451Z,10.40
2023-04-01T07:56:40.710Z,10.02
2023-04-01T07:59:15.914Z,9.30
2023-04-01T08:02:15.196Z,10.10
2023-04-01T08:05:11.427Z,11.00
2023-04-01T08:07:38.850Z,7.88
2023-04-01T08:10:44.906Z,9.93
2023-04-01T08:14:03.694Z,9.77
2023-04-01T08:17:17.820Z,9.82
2023-04-01T08:20:24.090Z,10.20
2023-04-01T08:23:03.903Z,9.18
2023-04-01T08:25:41.670Z,10.35
2023-04-01T08:28:18.722Z,9.95
2023-04-01T08:30:52.136Z,11.98
2023-04-01T08:33:31.166Z,11.95
2023-04-01T08:36:37.148Z,12.57
2023-04-01T08:39:21.486Z,12.52
2023-04-01T08:42:10.575Z,11.52
2023-04-01T08:45:03.562Z,12.77
2023-04-01T08:47:41.255Z,13.40
2023-04-01T08:50:13.945Z,13.45
2023-04-01T08:53:10.996Z,12.55
2023-04-01T08:55:53.429Z,11.10
2023-04-01T08:58:31.093Z,10.43
2023-04-01T09:01:28.613Z,10.57
2023-04-01T09:04:14.801Z,9.63
2023-04-01T09:07:01.106Z,11.00
2023-04-01T09:09:40.926Z,9.90
2023-04-01T09:12:46.856Z,9.10
2023-04-01T09:15:32.766Z,9.43
2023-04-01T09:18:42.080Z,9.18
2023-04-01T09:21:24.518Z,8.18
2023-04-01T09:24:27.556Z,6.80
2023-04-01T09:27:05.909Z,6.95
2023-04-01T09:29:59.791Z,7.50
2023-04-01T09:32:41.284Z,8.07
2023-04-01T09:35:23.927Z,8.00
2023-04-01T09:38:21.468Z,7.75
2023-04-01T09:41:14.487Z,8.43
2023-04-01T09:44:10.305Z,6.53
2023-04-01T09:47:10.729Z,6.70
2023-04-01T09:50:07.967Z,6.28
2023-04-01T09:53:01.484Z,7.43
2023-04-01T09:55:56.275Z,7.45
2023-04-01T09:58:29.686Z,7.93
2023-04-01T10:01:53.676Z,8.38
2023-04-01T10:04:54.947Z,7.50
2023-04-01T10:07:38.788Z,8.73
2023-04-01T10:10:31.084Z,7.20
2023-04-01T10:13:10.340Z,7.65
2023-04-01T10:15:57.946Z,8.10
2023-04-01T10:18:59.824Z,8.73
2023-04-01T10:21:56.120Z,9.98
2023-04-01T10:24:32.906Z,5.20
2023-04-01T10:27:45.887Z,4.60
2023-04-01T10:31:03.475Z,6.20
2023-04-01T10:34:13.135Z,7.35
2023-04-01T10:36:57.220Z,8.85
2023-04-01T10:39:56.485Z,7.60
2023-04-01T10:42:50.575Z,6.05
2023-04-01T10:46:21.044Z,6.57
2023-04-01T10:49:06.357Z,6.97
2023-04-01T10:52:05.784Z,7.57
2023-04-01T10:55:00.644Z,6.32
2023-04-01T10:57:55.543Z,6.05
2023-04-01T11:01:05.985Z,8.07
2023-04-01T11:04:35.670Z,8.65
2023-04-01T11:08:06.181Z,14.80
2023-04-01T11:10:47.405Z,8.32
2023-04-01T11:13:27.458Z,5.97
2023-04-01T11:16:18.602Z,7.93
2023-04-01T11:19:25.293Z,6.22
2023-04-01T11:21:59.079Z,7.22
2023-04-01T11:24:58.231Z,6.93
2023-04-01T11:27:59.827Z,7.13
2023-04-01T11:31:05.725Z,10.85
2023-04-01T11:33:34.989Z,44.67
2023-04-01T11:36:08.957Z,27.98
2023-04-01T11:39:13.319Z,9.38
2023-04-01T11:42:39.757Z,12.95
2023-04-01T11:46:11.167Z,8.90
2023-04-01T11:48:56.042Z,8.40
2023-04-01T11:51:44.068Z,5.93
2023-04-01T11:54:14.292Z,5.07
2023-04-01T11:57:07.022Z,4.50
2023-04-01T11:59:52.636Z,3.13
2023-04-01T12:02:29.000Z,3.95
2023-04-01T12:05:05.428Z,3.08
2023-04-01T12:07:54.351Z,3.60
2023-04-01T12:10:29.095Z,3.53
2023-04-01T12:13:12.919Z,3.72
2023-04-01T12:15:43.365Z,3.65
2023-04-01T12:18:27.298Z,3.70
2023-04-01T12:21:26.468Z,4.60
2023-04-01T12:24:03.473Z,3.50
2023-04-01T12:27:02.176Z,3.95
2023-04-01T12:29:54.260Z,5.05
2023-04-01T12:32:45.525Z,5.38
2023-04-01T12:35:19.443Z,5.15
2023-04-01T12:38:06.978Z,6.72
2023-04-01T12:41:03.420Z,6.75
2023-04-01T12:43:57.077Z,5.68
2023-04-01T12:46:33.419Z,5.28
2023-04-01T12:49:27.427Z,5.88
2023-04-01T12:52:09.096Z,7.13
2023-04-01T12:55:01.431Z,6.80
2023-04-01T12:57:58.660Z,6.50
2023-04-01T13:00:49.285Z,6.35
2023-04-01T13:03:38.902Z,5.55
2023-04-01T13:06:25.214Z,6.68
2023-04-01T13:09:17.977Z,9.80
2023-04-01T13:12:01.047Z,8.13
2023-04-01T13:14:58.712Z,7.70
2023-04-01T13:17:59.033Z,8.30
2023-04-01T13:20:48.151Z,8.75
2023-04-01T13:23:27.562Z,7.20
2023-04-01T13:26:15.130Z,8.23
2023-04-01T13:28:55.644Z,20.77
2023-04-01T13:31:42.512Z,17.38
2023-04-01T13:34:47.731Z,10.98
2023-04-01T13:37:14.950Z,11.40
2023-04-01T13:40:00.475Z,16.20
2023-04-01T13:42:39.135Z,33.47
2023-04-01T13:45:18.080Z,15.50
2023-04-01T13:47:57.089Z,18.83
2023-04-01T13:50:33.233Z,19.73
2023-04-01T13:53:09.859Z,13.23
2023-04-01T13:55:48.972Z,15.48
2023-04-01T13:58:35.110Z,12.77
2023-04-01T14:01:02.654Z,12.60
2023-04-01T14:04:07.644Z,10.48
2023-04-01T14:06:59.846Z,11.25
2023-04-01T14:09:38.940Z,10.15
2023-04-01T14:12:51.286Z,10.68
2023-04-01T14:15:37.178Z,10.37
2023-04-01T14:18:26.384Z,12.80
2023-04-01T14:21:12.504Z,12.18
2023-04-01T14:24:21.851Z,13.82
2023-04-01T14:26:54.788Z,11.40
2023-04-01T14:29:48.124Z,13.13
2023-04-01T14:32:45.393Z,13.32
2023-04-01T14:35:33.036Z,15.05
2023-04-01T14:38:12.478Z,16.83
2023-04-01T14:40:57.491Z,18.08
2023-04-01T14:43:33.550Z,20.83
2023-04-01T14:46:08.339Z,20.10
2023-04-01T14:48:52.188Z,22.80
2023-04-01T14:51:31.432Z,23.90
2023-04-01T14:54:32.695Z,24.08
2023-04-01T14:57:33.122Z,25.83
2023-04-01T15:00:19.045Z,27.77
2023-04-01T15:03:21.675Z,26.50
2023-04-01T15:06:13.282Z,30.95
2023-04-01T15:09:04.686Z,29.23
2023-04-01T15:11:55.852Z,33.47
2023-04-01T15:14:54.864Z,32.20
2023-04-01T15:17:31.302Z,34.42
2023-04-01T15:20:30.982Z,39.08
2023-04-01T15:23:31.943Z,31.63
2023-04-01T15:26:18.003Z,33.17
2023-04-01T15:29:11.069Z,37.83
2023-04-01T15:31:51.569Z,47.05
2023-04-01T15:34:24.712Z,46.20
2023-04-01T15:37:02.625Z,44.05
2023-04-01T15:39:44.590Z,48.50
2023-04-01T15:42:27.466Z,46.45
2023-04-01T15:47:41.070Z,48.45
2023-04-01T15:50:32.369Z,43.53
2023-04-01T15:53:32.578Z,46.05
2023-04-01T15:56:58.489Z,63.05
2023-04-01T15:59:57.579Z,49.92
2023-04-01T16:02:40.197Z,50.53
2023-04-01T16:05:10.838Z,51.90
2023-04-01T16:07:44.744Z,52.08
2023-04-01T16:10:20.768Z,63.20
2023-04-01T16:13:26.289Z,54.00
2023-04-01T16:16:18.222Z,51.47
2023-04-01T16:19:11.986Z,47.60
2023-04-01T16:21:53.490Z,44.05
2023-04-01T16:24:39.462Z,44.35
2023-04-01T16:27:28.364Z,58.55
2023-04-01T16:30:33.425Z,74.90
2023-04-01T16:33:14.040Z,51.50
2023-04-01T16:35:56.994Z,47.90
2023-04-01T16:38:40.681Z,49.85
2023-04-01T16:41:17.934Z,47.47
2023-04-01T16:43:57.195Z,46.38
2023-04-01T16:46:41.731Z,40.08
2023-04-01T16:49:12.163Z,49.17
2023-04-01T16:51:45.998Z,42.53
2023-04-01T16:54:22.686Z,43.72
2023-04-01T16:57:02.999Z,43.53
2023-04-01T16:59:36.731Z,48.10
2023-04-01T17:02:10.071Z,53.85
2023-04-01T17:04:55.132Z,50.17
2023-04-01T17:07:37.866Z,46.63
2023-04-01T17:10:39.356Z,58.38
2023-04-01T17:13:09.936Z,93.78
2023-04-01T17:16:04.818Z,64.70
2023-04-01T17:18:41.458Z,41.85
2023-04-01T17:21:14.767Z,46.30
2023-04-01T17:23:54.018Z,46.35
2023-04-01T17:26:32.502Z,64.18
2023-04-01T17:29:07.501Z,43.65
2023-04-01T17:32:04.197Z,43.35
2023-04-01T17:34:52.353Z,43.08
2023-04-01T17:37:56.319Z,51.97
2023-04-01T17:40:38.492Z,50.97
2023-04-01T17:46:03.098Z,50.17
2023-04-01T17:48:57.797Z,54.08
2023-04-01T17:51:40.900Z,59.20
2023-04-01T17:54:33.072Z,57.60
2023-04-01T17:57:25.408Z,62.33
2023-04-01T18:03:25.137Z,54.60
2023-04-01T18:06:11.496Z,51.15
2023-04-01T18:09:03.723Z,53.60
2023-04-01T18:12:01.870Z,53.97
2023-04-01T18:14:38.140Z,57.58
2023-04-01T18:17:28.641Z,50.00
2023-04-01T18:20:04.949Z,53.20
2023-04-01T18:23:16.114Z,49.97
2023-04-01T18:25:49.339Z,51.00
2023-04-01T18:28:44.952Z,49.53
2023-04-01T18:31:15.300Z,49.38
2023-04-01T18:34:04.919Z,48.92
2023-04-01T18:36:45.118Z,49.85
2023-04-01T18:39:26.913Z,53.47
2023-04-01T18:42:44.751Z,50.95
2023-04-01T18:45:34.975Z,54.92
2023-04-01T18:48:12.209Z,54.83
2023-04-01T18:50:56.042Z,54.15
2023-04-01T18:53:48.077Z,52.05
2023-04-01T18:56:31.573Z,58.33
2023-04-01T18:59:17.849Z,59.05
2023-04-01T19:02:19.672Z,56.42
2023-04-01T19:05:11.424Z,57.42
2023-04-01T19:07:42.797Z,68.40
2023-04-01T19:10:43.701Z,68.15
2023-04-01T19:13:19.787Z,51.38
2023-04-01T19:16:25.523Z,44.63
2023-04-01T19:19:12.149Z,45.45
2023-04-01T19:21:48.026Z,42.10
2023-04-01T19:24:52.702Z,41.42
2023-04-01T19:27:29.288Z,47.25
2023-04-01T19:30:21.275Z,44.53
2023-04-01T19:33:19.663Z,54.33
2023-04-01T19:36:20.715Z,51.55
2023-04-01T19:39:04.876Z,49.75
2023-04-01T19:41:36.198Z,51.60
2023-04-01T19:44:27.295Z,56.67
2023-04-01T19:47:29.738Z,50.50
2023-04-01T19:50:30.878Z,55.15
2023-04-01T19:53:07.359Z,43.92
2023-04-01T19:55:47.751Z,42.97
2023-04-01T19:58:30.153Z,49.65
2023-04-01T20:01:01.758Z,56.17
2023-04-01T20:03:56.457Z,54.70
2023-04-01T20:06:47.605Z,50.65
2023-04-01T20:09:27.224Z,58.13
2023-04-01T20:12:10.175Z,60.50
2023-04-01T20:14:47.520Z,60.63
2023-04-01T20:17:20.607Z,57.85
2023-04-01T20:20:11.968Z,61.67
2023-04-01T20:22:52.716Z,57.65
2023-04-01T20:25:33.515Z,59.55
2023-04-01T20:28:12.530Z,63.50
2023-04-01T20:31:15.078Z,57.25
2023-04-01T20:33:45.308Z,53.47
2023-04-01T20:36:15.857Z,49.10
2023-04-01T20:39:04.537Z,41.65
2023-04-01T20:41:44.624Z,35.25
2023-04-01T20:44:47.753Z,36.45
2023-04-01T20:47:27.092Z,40.30
2023-04-01T20:50:21.482Z,47.70
2023-04-01T20:53:30.679Z,68.20
2023-04-01T20:56:17.049Z,44.22
2023-04-01T20:59:09.521Z,50.25
2023-04-01T21:01:48.568Z,50.22
2023-04-01T21:04:34.736Z,56.45
2023-04-01T21:07:17.205Z,61.58
2023-04-01T21:10:12.130Z,50.63
2023-04-01T21:12:58.007Z,42.35
2023-04-01T21:15:46.936Z,38.83
2023-04-01T21:18:45.501Z,32.67
2023-04-01T21:21:48.884Z,34.33
2023-04-01T21:24:43.660Z,30.23
2023-04-01T21:27:42.941Z,29.27
2023-04-01T21:30:46.725Z,28.90
2023-04-01T21:34:06.604Z,30.67
2023-04-01T21:36:54.484Z,29.15
2023-04-01T21:39:54.738Z,26.83
2023-04-01T21:42:45.663Z,28.33
2023-04-01T21:45:13.310Z,30.77
2023-04-01T21:48:23.052Z,38.08
2023-04-01T21:51:20.101Z,37.47
2023-04-01T21:54:19.036Z,41.38
2023-04-01T21:57:05.140Z,39.55
2023-04-01T21:59:32.301Z,39.63
2023-04-01T22:02:16.087Z,45.60
2023-04-01T22:05:11.314Z,44.33
2023-04-01T22:07:38.865Z,40.92
2023-04-01T22:10:18.539Z,42.92
2023-04-01T22:13:06.368Z,43.72
2023-04-01T22:16:10.513Z,42.95
2023-04-01T22:19:08.020Z,37.25
2023-04-01T22:22:21.852Z,30.30
2023-04-01T22:24:58.686Z,28.95
2023-04-01T22:27:39.934Z,27.50
2023-04-01T22:30:32.666Z,30.17
2023-04-01T22:33:36.842Z,29.98
2023-04-01T22:36:14.990Z,30.75
2023-04-01T22:38:58.754Z,30.67
2023-04-01T22:41:54.644Z,26.17
2023-04-01T22:44:21.890Z,30.38
2023-04-01T22:47:02.489Z,28.17
2023-04-01T22:49:40.165Z,28.95
2023-04-01T22:52:21.326Z,30.33
2023-04-01T22:54:59.358Z,33.55
2023-04-01T22:58:05.698Z,34.22
2023-04-01T23:00:43.037Z,35.08
2023-04-01T23:03:19.068Z,35.35
2023-04-01T23:05:52.047Z,34.65
2023-04-01T23:08:27.982Z,34.88
2023-04-01T23:11:03.458Z,29.23
2023-04-01T23:13:38.862Z,28.33
2023-04-01T23:16:08.158Z,30.10
2023-04-01T23:18:56.876Z,29.77
2023-04-01T23:21:38.707Z,30.40
2023-04-01T23:24:21.414Z,32.80
2023-04-01T23:27:23.821Z,31.90
2023-04-01T23:29:52.102Z,37.88
2023-04-01T23:32:27.186Z,37.78
2023-04-01T23:35:01.621Z,41.20
2023-04-01T23:37:28.921Z,39.85
2023-04-01T23:39:59.384Z,37.42
2023-04-01T23:42:30.314Z,34.17
2023-04-01T23:45:02.285Z,32.50
2023-04-01T23:47:35.544Z,32.83
2023-04-01T23:50:10.478Z,30.20
2023-04-01T23:52:47.633Z,32.17
2023-04-01T23:55:28.452Z,31.55
2023-04-01T23:58:08.188Z,32.65
